Time;durP1;ratioP1;P1;durP2;ratioP2;P2;SDS_P1;SDS_P2;PMS_P1;PMS_P2;Temp;Humidity;BMP_temperature;BMP_pressure;BME280_temperature;BME280_humidity;BME280_pressure;Samples;Min_cycle;Max_cycle;Signal;HPM_P1;HPM_P2
2021/04/21 07:40:54;;;;;;;14.97;8.90;;;;;;;21.80;43.22;94834.06;10363675;28;782088;-73
2021/04/21 07:45:58;;;;;;;10.73;6.63;;;;;;;21.60;40.66;94833.00;10358561;28;20301;-73
2021/04/21 07:51:11;;;;;;;13.45;8.57;;;;;;;20.75;39.72;94837.91;10362888;28;20424;-73
2021/04/21 07:56:12;;;;;;;20.40;10.55;;;;;;;18.69;45.12;94834.44;10358206;28;20053;-73
2021/04/21 08:01:13;;;;;;;10.10;5.82;;;;;;;19.25;44.13;94838.00;10359605;28;20022;-73
2021/04/21 08:06:13;;;;;;;20.27;6.13;;;;;;;21.71;39.17;94828.69;10359452;28;20041;-73
2021/04/21 08:11:22;;;;;;;9.73;5.73;;;;;;;22.67;38.62;94821.78;10359046;28;20022;-73
2021/04/21 08:16:29;;;;;;;7.18;4.28;;;;;;;23.83;35.05;94822.03;10358675;28;20105;-73
2021/04/21 08:21:48;;;;;;;6.78;3.67;;;;;;;25.06;33.50;94814.44;10401583;28;20025;-73
2021/04/21 08:26:52;;;;;;;8.95;3.97;;;;;;;25.52;31.81;94816.47;10389949;28;20471;-73
2021/04/21 08:31:54;;;;;;;7.82;3.63;;;;;;;23.18;32.06;94823.97;10406117;28;20033;-73
2021/04/21 08:36:54;;;;;;;7.82;3.70;;;;;;;20.87;36.21;94829.78;10407108;28;20032;-73
2021/04/21 08:41:59;;;;;;;3.93;3.07;;;;;;;21.04;38.14;94820.59;10406987;28;20044;-73
2021/04/21 08:47:01;;;;;;;3.78;3.20;;;;;;;20.06;36.66;94816.28;10406058;28;20083;-72
2021/04/21 08:52:02;;;;;;;14.10;3.63;;;;;;;19.63;37.97;94820.84;10388353;28;20038;-73
2021/04/21 08:57:03;;;;;;;10.35;3.75;;;;;;;19.37;38.00;94818.25;10388250;28;20029;-73
2021/04/21 09:02:03;;;;;;;6.88;3.97;;;;;;;18.85;40.42;94813.75;10405674;28;20032;-73
2021/04/21 09:07:04;;;;;;;5.57;3.42;;;;;;;22.04;35.48;94783.97;10406428;28;20033;-74
2021/04/21 09:12:06;;;;;;;3.85;2.72;;;;;;;24.42;31.43;94787.28;10406432;28;20682;-73
2021/04/21 09:17:06;;;;;;;4.93;2.78;;;;;;;24.17;33.61;94782.06;10405535;28;20379;-73
2021/04/21 09:22:09;;;;;;;2.50;2.28;;;;;;;24.37;30.34;94776.56;10405526;28;20030;-74
2021/04/21 09:27:35;;;;;;;5.65;2.00;;;;;;;25.91;30.61;94766.75;10403959;28;20047;-73
2021/04/21 09:32:46;;;;;;;6.32;3.10;;;;;;;27.17;27.24;94757.28;10405295;28;20053;-74
2021/04/21 09:37:47;;;;;;;6.63;2.55;;;;;;;26.67;26.77;94765.81;10404656;28;20476;-73
2021/04/21 09:42:54;;;;;;;3.90;2.10;;;;;;;23.25;29.30;94776.75;10404725;28;20049;-73
2021/04/21 09:48:08;;;;;;;3.73;2.50;;;;;;;21.21;33.25;94780.53;10404695;28;20057;-73
2021/04/21 09:53:19;;;;;;;7.53;2.78;;;;;;;19.60;34.76;94796.16;10403471;28;20325;-72
2021/04/21 09:58:38;;;;;;;3.55;2.97;;;;;;;18.07;38.39;94807.22;10403200;28;20041;-73
2021/04/21 10:03:39;;;;;;;6.05;3.25;;;;;;;16.91;43.41;94811.00;10403650;28;20033;-72
2021/04/21 10:08:39;;;;;;;4.87;2.50;;;;;;;17.80;44.17;94818.34;10385715;28;20079;-73
2021/04/21 10:13:45;;;;;;;2.60;2.10;;;;;;;19.43;42.37;94811.47;10404088;28;20087;-73
2021/04/21 10:18:46;;;;;;;2.03;1.50;;;;;;;22.15;37.20;94806.19;10403328;28;20032;-73
2021/04/21 10:23:49;;;;;;;2.60;1.90;;;;;;;23.88;33.22;94803.38;10403240;28;20025;-73
2021/04/21 10:28:50;;;;;;;1.90;1.58;;;;;;;21.02;36.96;94816.63;10403393;28;20096;-73
2021/04/21 10:33:52;;;;;;;3.85;1.80;;;;;;;21.84;34.84;94810.34;10403656;28;20385;-73
2021/04/21 10:38:52;;;;;;;1.88;1.70;;;;;;;22.23;36.36;94807.19;10385131;28;20030;-73
2021/04/21 10:44:16;;;;;;;2.58;2.10;;;;;;;24.69;34.20;94801.97;10402020;28;20054;-74
2021/04/21 10:49:41;;;;;;;4.50;1.50;;;;;;;23.27;32.45;94793.63;10403227;28;20435;-73
2021/04/21 10:54:43;;;;;;;2.33;1.40;;;;;;;24.05;32.67;94802.19;10384085;28;20029;-73
2021/04/21 11:00:05;;;;;;;3.25;0.80;;;;;;;26.98;27.77;94788.63;10402863;28;20447;-73
2021/04/21 11:05:10;;;;;;;2.60;1.15;;;;;;;21.81;33.34;94798.16;10402697;28;20056;-73
2021/04/21 11:10:36;;;;;;;2.30;1.60;;;;;;;17.82;38.96;94805.22;10402282;28;20094;-73
2021/04/21 11:15:46;;;;;;;3.15;1.75;;;;;;;14.19;48.35;94812.66;10384036;28;20099;-73
2021/04/21 11:20:47;;;;;;;4.90;1.90;;;;;;;13.50;55.40;94832.00;10402478;28;20025;-72
2021/04/21 11:25:47;;;;;;;2.72;2.17;;;;;;;13.13;61.39;94820.78;10382721;28;20034;-73
2021/04/21 11:30:47;;;;;;;4.70;1.83;;;;;;;12.96;56.12;94812.34;10360728;28;20488;-73
2021/04/21 11:35:48;;;;;;;1.50;1.17;;;;;;;12.71;49.84;94811.53;10361236;28;20036;-73
2021/04/21 11:40:48;;;;;;;2.40;1.70;;;;;;;12.53;50.39;94807.66;10360863;28;20028;-73
2021/04/21 11:45:48;;;;;;;2.33;0.90;;;;;;;13.13;50.97;94793.81;10360274;28;20663;-73
2021/04/21 11:50:50;;;;;;;2.07;1.57;;;;;;;14.77;47.88;94800.66;10359947;28;20388;-73
2021/04/21 11:56:02;;;;;;;3.72;1.20;;;;;;;15.80;43.47;94787.06;10367202;28;20034;-73
2021/04/21 12:01:05;;;;;;;2.17;1.15;;;;;;;15.44;43.53;94793.97;10368740;28;20144;-72
2021/04/21 12:06:11;;;;;;;1.80;1.38;;;;;;;14.67;45.08;94790.84;10350657;28;20014;-72
2021/04/21 12:11:11;;;;;;;7.40;1.60;;;;;;;15.31;46.30;94790.19;10367888;28;20129;-73
2021/04/21 12:16:15;;;;;;;2.60;1.70;;;;;;;15.32;46.05;94788.28;10366746;28;20517;-74
2021/04/21 12:21:18;;;;;;;3.70;2.47;;;;;;;15.49;48.35;94777.63;10368574;28;20021;-73
2021/04/21 12:26:33;;;;;;;4.97;2.33;;;;;;;15.63;49.89;94779.50;10367381;28;20029;-73
2021/04/21 12:31:35;;;;;;;3.85;1.90;;;;;;;14.69;48.31;94768.88;10366615;28;20030;-74
2021/04/21 12:36:37;;;;;;;2.80;2.20;;;;;;;14.99;52.58;94772.16;10365168;28;20506;-74
2021/04/21 12:41:44;;;;;;;6.15;2.85;;;;;;;14.82;50.37;94768.13;10365223;28;20054;-74
2021/04/21 12:46:47;;;;;;;6.05;1.75;;;;;;;15.09;52.03;94777.34;10364867;28;20060;-74
2021/04/21 12:51:48;;;;;;;4.18;2.17;;;;;;;15.27;49.68;94778.34;10365368;28;20038;-74
2021/04/21 12:56:50;;;;;;;4.13;2.22;;;;;;;15.37;50.45;94763.81;10364357;28;20034;-73
2021/04/21 13:01:51;;;;;;;3.88;2.90;;;;;;;15.52;49.13;94760.78;10365273;28;20026;-73
2021/04/21 13:06:52;;;;;;;5.72;2.45;;;;;;;15.67;49.03;94748.81;10364277;28;20030;-73
2021/04/21 13:12:00;;;;;;;3.05;2.60;;;;;;;15.65;45.44;94744.78;10363787;28;20069;-73
2021/04/21 13:17:01;;;;;;;3.05;2.13;;;;;;;15.43;44.28;94754.47;10364119;28;20026;-73
2021/04/21 13:22:05;;;;;;;2.83;2.40;;;;;;;14.83;44.66;94747.25;10363484;28;20021;-73
2021/04/21 13:27:14;;;;;;;4.07;2.35;;;;;;;14.96;44.66;94745.66;10362517;28;20029;-73
2021/04/21 13:32:15;;;;;;;2.97;2.30;;;;;;;14.61;47.73;94734.38;10362058;28;20461;-73
2021/04/21 13:37:15;;;;;;;4.82;2.33;;;;;;;14.60;45.77;94738.22;10362058;28;20030;-73
2021/04/21 13:42:15;;;;;;;16.63;3.43;;;;;;;14.22;48.25;94732.91;10362587;28;20124;-73
2021/04/21 13:47:16;;;;;;;5.07;3.10;;;;;;;14.74;46.29;94732.84;10362251;28;20404;-73
2021/04/21 13:52:16;;;;;;;5.43;2.70;;;;;;;14.74;44.23;94722.81;10362208;28;20037;-73
2021/04/21 13:57:17;;;;;;;3.15;2.80;;;;;;;14.51;49.03;94721.84;10361068;28;20030;-73
2021/04/21 14:02:17;;;;;;;4.85;2.88;;;;;;;14.64;46.61;94712.19;10361777;28;20499;-73
2021/04/21 14:07:18;;;;;;;11.20;3.53;;;;;;;14.56;47.16;94723.69;10360708;28;20022;-73
2021/04/21 14:12:18;;;;;;;4.20;2.77;;;;;;;14.58;46.77;94722.28;10361254;28;20030;-73
2021/04/21 14:17:19;;;;;;;6.00;3.17;;;;;;;14.73;47.20;94721.19;10359372;28;20460;-72
2021/04/21 14:22:19;;;;;;;6.10;2.47;;;;;;;14.86;45.53;94714.19;10360950;28;20060;-72
2021/04/21 14:27:20;;;;;;;6.07;2.63;;;;;;;14.83;48.27;94718.31;10361326;28;20073;-73
2021/04/21 14:32:21;;;;;;;5.25;2.67;;;;;;;15.12;49.84;94719.91;10380585;28;20021;-73
2021/04/21 14:37:21;;;;;;;3.50;2.42;;;;;;;14.44;47.78;94724.97;10400686;28;20033;-72
2021/04/21 14:42:22;;;;;;;6.18;2.88;;;;;;;14.14;49.46;94727.06;10358423;28;20103;-73
2021/04/21 14:47:23;;;;;;;7.35;2.25;;;;;;;13.87;49.03;94737.78;10359396;28;20033;-72
2021/04/21 14:52:23;;;;;;;5.68;1.85;;;;;;;13.46;55.63;94742.66;10341501;28;20030;-73
2021/04/21 14:57:24;;;;;;;4.53;2.70;;;;;;;13.84;56.41;94729.19;10358595;28;20034;-72
2021/04/21 15:02:24;;;;;;;7.30;3.72;;;;;;;14.01;56.58;94739.44;10359288;28;21315;-72
2021/04/21 15:07:25;;;;;;;8.52;2.90;;;;;;;14.08;52.97;94739.06;10359639;28;20105;-72
2021/04/21 15:12:26;;;;;;;4.65;3.35;;;;;;;14.19;54.63;94735.09;10359857;28;20034;-73
2021/04/21 15:17:26;;;;;;;8.73;4.25;;;;;;;14.18;49.98;94738.91;10393015;28;20444;-73
2021/04/21 15:22:27;;;;;;;123.30;41.85;;;;;;;14.23;49.33;94734.50;10380109;28;20033;-73
2021/04/21 15:27:27;;;;;;;31.42;11.35;;;;;;;14.34;48.65;94730.53;10341560;28;20029;-72
2021/04/21 15:32:27;;;;;;;19.50;6.67;;;;;;;14.44;49.67;94741.19;10386613;28;20039;-73
2021/04/21 15:37:29;;;;;;;40.05;14.80;;;;;;;14.36;50.74;94737.25;10398659;28;20033;-74
2021/04/21 15:42:29;;;;;;;5.10;3.03;;;;;;;14.30;48.57;94733.03;10398259;28;20508;-72
2021/04/21 15:47:30;;;;;;;4.70;2.90;;;;;;;14.15;50.31;94739.50;10382123;28;20111;-72
2021/04/21 15:52:32;;;;;;;6.88;3.35;;;;;;;14.04;48.99;94740.75;10357181;28;20033;-72
2021/04/21 15:57:32;;;;;;;4.90;3.03;;;;;;;14.01;49.50;94741.34;10361537;28;20091;-73
2021/04/21 16:02:37;;;;;;;11.60;4.05;;;;;;;13.87;49.84;94752.09;10399401;28;20538;-72
2021/04/21 16:07:37;;;;;;;7.70;3.67;;;;;;;13.80;48.23;94759.75;10345255;28;20033;-73
2021/04/21 16:12:38;;;;;;;4.55;3.05;;;;;;;13.56;52.80;94749.81;10357988;28;20459;-73
2021/04/21 16:17:38;;;;;;;7.97;3.50;;;;;;;13.43;52.40;94753.25;10380163;28;20029;-74
2021/04/21 16:22:39;;;;;;;5.07;2.40;;;;;;;13.29;51.69;94753.16;10397689;28;20025;-74
2021/04/21 16:27:41;;;;;;;6.93;4.00;;;;;;;13.22;52.64;94748.09;10392198;28;20040;-74
2021/04/21 16:32:42;;;;;;;4.78;3.33;;;;;;;13.19;54.30;94756.78;10358164;28;20041;-73
2021/04/21 16:37:42;;;;;;;5.60;3.37;;;;;;;13.14;53.42;94756.81;10369171;28;20033;-74
2021/04/21 16:42:42;;;;;;;4.03;3.33;;;;;;;13.04;55.22;94770.44;10404977;28;20494;-73
2021/04/21 16:47:45;;;;;;;12.35;4.15;;;;;;;12.92;55.11;94773.53;10405696;28;20711;-73
2021/04/21 16:52:48;;;;;;;9.48;3.85;;;;;;;12.86;59.11;94782.78;10405826;28;20037;-73
2021/04/21 16:57:50;;;;;;;4.25;3.25;;;;;;;12.82;59.13;94793.31;10394928;28;20650;-73
2021/04/21 17:02:52;;;;;;;8.07;4.60;;;;;;;12.78;61.10;94795.81;10363369;28;20038;-75
2021/04/21 17:08:04;;;;;;;7.18;4.32;;;;;;;12.50;67.23;94805.50;10374686;28;20030;-75
2021/04/21 17:13:06;;;;;;;11.48;5.45;;;;;;;12.30;64.00;94818.06;10403793;28;20622;-74
2021/04/21 17:18:07;;;;;;;12.70;5.00;;;;;;;12.20;64.96;94828.91;10407476;28;20148;-73
2021/04/21 17:23:07;;;;;;;9.75;5.03;;;;;;;12.06;65.33;94834.13;10404361;28;20859;-72
2021/04/21 17:28:10;;;;;;;12.25;6.85;;;;;;;12.19;64.41;94839.97;10386647;28;20384;-73
2021/04/21 17:33:12;;;;;;;12.82;7.03;;;;;;;12.08;64.44;94852.72;10404302;28;20029;-72
2021/04/21 17:38:12;;;;;;;17.63;8.57;;;;;;;11.79;70.66;94854.19;10403719;28;20467;-73
2021/04/21 17:43:18;;;;;;;19.50;8.47;;;;;;;11.77;68.06;94860.94;10386503;28;20045;-73
2021/04/21 17:48:18;;;;;;;9.18;5.30;;;;;;;11.65;62.22;94857.78;10361287;28;20303;-73
2021/04/21 17:53:19;;;;;;;4.57;3.65;;;;;;;11.76;61.68;94873.59;10384542;28;20040;-73
2021/04/21 17:58:24;;;;;;;8.70;4.18;;;;;;;11.85;62.40;94883.81;10380205;28;20030;-73
2021/04/21 18:03:26;;;;;;;6.78;3.63;;;;;;;11.79;61.46;94896.47;10380127;28;20476;-74
2021/04/21 18:08:27;;;;;;;9.10;4.10;;;;;;;11.79;60.84;94899.97;10374163;28;20017;-73
2021/04/21 18:13:27;;;;;;;7.15;4.40;;;;;;;11.61;60.34;94908.69;10384061;28;20025;-73
2021/04/21 18:18:28;;;;;;;7.43;4.82;;;;;;;11.72;61.71;94920.19;10379387;28;20109;-73
2021/04/21 18:23:28;;;;;;;7.90;5.53;;;;;;;11.63;62.54;94918.06;10382771;28;20527;-76
2021/04/21 18:28:28;;;;;;;8.33;5.13;;;;;;;11.53;62.47;94934.25;10363332;28;20029;-77
2021/04/21 18:33:29;;;;;;;15.63;5.77;;;;;;;11.59;62.59;94926.97;10398995;28;20862;-76
2021/04/21 18:38:29;;;;;;;16.07;7.80;;;;;;;11.58;65.04;94936.13;10402081;28;20025;-76
2021/04/21 18:43:29;;;;;;;23.17;8.70;;;;;;;11.25;68.07;94941.06;10385299;28;20055;-77
2021/04/21 18:48:30;;;;;;;12.87;7.30;;;;;;;11.07;70.03;94954.00;10374276;28;21167;-77
2021/04/21 18:53:30;;;;;;;14.43;7.80;;;;;;;11.04;74.03;94954.53;10360825;28;20309;-77
2021/04/21 18:58:31;;;;;;;18.38;8.50;;;;;;;11.21;74.77;94953.44;10376379;28;20292;-77
2021/04/21 19:03:31;;;;;;;18.80;8.68;;;;;;;11.29;73.05;94966.34;10400891;28;20104;-77
2021/04/21 19:08:32;;;;;;;16.97;10.03;;;;;;;11.29;74.22;94967.16;10400554;28;20052;-76
2021/04/21 19:13:33;;;;;;;15.60;8.45;;;;;;;11.32;73.01;94971.19;10401532;28;20052;-77
2021/04/21 19:18:40;;;;;;;14.37;9.03;;;;;;;11.10;79.37;94969.59;10402334;28;20044;-76
2021/04/21 19:23:43;;;;;;;16.63;8.23;;;;;;;11.04;73.15;94976.06;10400833;28;20264;-76
2021/04/21 19:28:44;;;;;;;13.75;8.57;;;;;;;10.99;73.46;94981.44;10400847;28;20994;-76
2021/04/21 19:33:44;;;;;;;15.43;8.15;;;;;;;10.93;73.78;94977.13;10400500;28;20098;-76
2021/04/21 19:38:45;;;;;;;17.63;9.10;;;;;;;10.86;75.62;94980.09;10400478;28;20381;-74
2021/04/21 19:43:45;;;;;;;18.17;7.40;;;;;;;10.65;72.81;94987.34;10400652;28;20296;-73
2021/04/21 19:48:45;;;;;;;15.05;8.50;;;;;;;10.63;73.09;94986.00;10399914;28;20033;-73
2021/04/21 19:53:46;;;;;;;11.73;7.57;;;;;;;10.64;78.42;94998.34;10382638;28;20040;-74
2021/04/21 19:58:46;;;;;;;19.27;8.25;;;;;;;10.68;76.81;94999.44;10400572;28;20033;-73
2021/04/21 20:03:47;;;;;;;11.67;7.67;;;;;;;10.56;75.97;94995.13;10400305;28;20044;-74
2021/04/21 20:08:48;;;;;;;18.33;8.73;;;;;;;10.47;76.30;94993.22;10399826;28;20025;-73
2021/04/21 20:13:48;;;;;;;22.02;8.80;;;;;;;10.35;79.63;94999.63;10403719;28;20283;-73
2021/04/21 20:18:49;;;;;;;26.15;8.80;;;;;;;10.39;83.48;95003.41;10407647;28;20816;-73
2021/04/21 20:23:49;;;;;;;25.50;10.40;;;;;;;10.40;87.62;95005.03;10407075;28;20055;-73
2021/04/21 20:28:50;;;;;;;25.40;9.85;;;;;;;10.41;88.08;94995.91;10385828;28;20265;-73
2021/04/21 20:33:50;;;;;;;16.40;9.03;;;;;;;10.33;89.79;95004.44;10367548;28;20037;-73
2021/04/21 20:38:50;;;;;;;16.50;8.82;;;;;;;10.28;87.89;95009.78;10365887;28;20301;-73
2021/04/21 20:43:51;;;;;;;13.53;8.00;;;;;;;10.11;82.12;95003.84;10366418;28;20046;-73
2021/04/21 20:48:51;;;;;;;13.68;7.80;;;;;;;10.01;82.12;95018.84;10384142;28;20275;-74
2021/04/21 20:53:52;;;;;;;10.73;7.00;;;;;;;10.09;82.29;95026.38;10406666;28;20099;-74
2021/04/21 20:58:52;;;;;;;16.07;8.33;;;;;;;10.08;81.88;95014.03;10406830;28;20034;-74
2021/04/21 21:03:52;;;;;;;14.48;7.38;;;;;;;10.12;83.50;95016.19;10406935;28;20021;-74
2021/04/21 21:08:53;;;;;;;14.83;8.73;;;;;;;10.06;81.61;95024.22;10406383;28;20034;-73
2021/04/21 21:13:53;;;;;;;18.97;7.60;;;;;;;10.09;86.64;95021.00;10353643;28;20041;-74
2021/04/21 21:18:53;;;;;;;16.37;8.00;;;;;;;10.04;84.38;95026.34;10365159;28;20387;-74
2021/04/21 21:23:54;;;;;;;14.27;7.00;;;;;;;9.76;83.54;95027.56;10399962;28;20136;-74
2021/04/21 21:28:54;;;;;;;14.60;8.50;;;;;;;9.56;89.06;95029.06;10404418;28;20029;-74
2021/04/21 21:33:54;;;;;;;12.23;7.90;;;;;;;9.61;91.20;95040.91;10405987;28;20033;-73
2021/04/21 21:38:55;;;;;;;14.00;6.97;;;;;;;9.42;90.90;95030.59;10405555;28;20037;-74
2021/04/21 21:43:55;;;;;;;15.43;6.67;;;;;;;9.29;90.92;95034.50;10386120;28;20140;-74
2021/04/21 21:48:56;;;;;;;10.67;6.83;;;;;;;9.28;90.38;95040.97;10368650;28;20267;-73
2021/04/21 21:53:56;;;;;;;9.25;5.85;;;;;;;9.28;89.75;95045.50;10364772;28;20354;-74
2021/04/21 21:58:57;;;;;;;18.55;7.40;;;;;;;9.24;88.99;95048.72;10363313;28;20042;-74
2021/04/21 22:03:57;;;;;;;11.87;6.63;;;;;;;9.13;90.05;95055.06;10361786;28;20107;-74
2021/04/21 22:09:03;;;;;;;11.85;6.03;;;;;;;8.91;91.93;95067.75;10363296;28;20034;-74
2021/04/21 22:14:22;;;;;;;10.02;5.82;;;;;;;8.80;97.00;95064.16;10372241;28;20025;-75
2021/04/21 22:19:22;;;;;;;;;;;;;;;8.38;100.00;95062.88;10389422;28;20114;-76
2021/04/21 22:24:24;;;;;;;7.80;5.30;;;;;;;8.02;100.00;95068.63;10397668;28;19958;-81
2021/04/21 22:29:24;;;;;;;10.75;5.88;;;;;;;7.80;100.00;95062.44;10389098;28;20034;-84
2021/04/21 22:34:25;;;;;;;8.32;5.25;;;;;;;7.69;100.00;95067.66;10399290;28;20052;-77
2021/04/21 22:39:25;;;;;;;10.38;5.93;;;;;;;7.57;100.00;95066.94;10403421;28;20486;-76
2021/04/21 22:44:26;;;;;;;12.60;6.33;;;;;;;7.68;100.00;95070.59;10402365;28;20505;-76
2021/04/21 22:49:26;;;;;;;9.20;5.43;;;;;;;7.56;100.00;95059.97;10402571;28;20419;-77
2021/04/21 22:54:26;;;;;;;7.22;5.50;;;;;;;7.44;100.00;95061.97;10405086;28;20543;-77
2021/04/21 22:59:27;;;;;;;10.20;6.07;;;;;;;7.39;100.00;95070.69;10406430;28;20045;-77
2021/04/21 23:04:27;;;;;;;11.73;6.37;;;;;;;7.40;100.00;95074.19;10406079;28;20689;-77
2021/04/21 23:09:27;;;;;;;9.17;5.90;;;;;;;7.38;100.00;95069.06;10406362;28;20272;-77
2021/04/21 23:14:28;;;;;;;10.32;6.55;;;;;;;7.27;100.00;95076.16;10406251;28;20060;-77
2021/04/21 23:19:28;;;;;;;9.23;5.03;;;;;;;7.23;100.00;95080.34;10405467;28;20026;-77
2021/04/21 23:24:29;;;;;;;9.70;5.33;;;;;;;7.17;100.00;95078.63;10405911;28;20037;-77
2021/04/21 23:29:29;;;;;;;8.63;6.13;;;;;;;7.16;100.00;95082.38;10405326;28;20272;-77
2021/04/21 23:34:30;;;;;;;8.50;5.63;;;;;;;7.19;100.00;95079.22;10403437;28;20037;-77
2021/04/21 23:39:30;;;;;;;7.82;5.70;;;;;;;7.26;100.00;95084.41;10403439;28;20029;-76
2021/04/21 23:44:30;;;;;;;11.60;5.73;;;;;;;7.31;100.00;95071.94;10384543;28;20045;-76
2021/04/21 23:49:31;;;;;;;10.55;6.57;;;;;;;7.28;100.00;95075.06;10404191;28;20272;-75
2021/04/21 23:54:32;;;;;;;10.17;5.50;;;;;;;7.16;100.00;95077.84;10400969;28;20520;-76
2021/04/21 23:59:32;;;;;;;8.88;6.80;;;;;;;7.23;100.00;95080.34;10402587;28;20405;-76
